Terminal Aerodrome Forecast
Issued by NWS

Home | Current Version | Previous Version | Graphics & Text | Print | Product List | Glossary On
Versions: 1 2 3 4 5 6 7 8 9 10 11
821
FTUS43 KMPX 261120
TAFRNH
TAF
KRNH 261120Z 2612/2712 03012G18KT 6SM -RA BR OVC008
     FM261700 35013G23KT P6SM VCSH OVC008
     FM262000 32010KT P6SM OVC010
     FM270300 35007KT 6SM -DZSN BKN008 OVC015
     FM270700 25010KT P6SM -SN OVC008=

USA.gov is the U.S. government's official web portal to all federal, state and local government web resources and services.